sensor_id;sensor_type;location;lat;lon;timestamp;P1;durP1;ratioP1;P2;durP2;ratioP2
15878;SDS011;61999;51.514;14.614;2023-05-01T00:01:11;44.30;;;28.57;;
15878;SDS011;61999;51.514;14.614;2023-05-01T00:03:39;45.03;;;26.90;;
15878;SDS011;61999;51.514;14.614;2023-05-01T00:06:07;41.37;;;25.27;;
15878;SDS011;61999;51.514;14.614;2023-05-01T00:08:35;38.57;;;24.63;;
15878;SDS011;61999;51.514;14.614;2023-05-01T00:11:03;38.57;;;24.03;;
15878;SDS011;61999;51.514;14.614;2023-05-01T00:13:34;33.20;;;22.77;;
15878;SDS011;61999;51.514;14.614;2023-05-01T00:16:06;34.03;;;21.10;;
15878;SDS011;61999;51.514;14.614;2023-05-01T00:18:36;26.83;;;18.47;;
15878;SDS011;61999;51.514;14.614;2023-05-01T00:21:05;25.27;;;16.40;;
15878;SDS011;61999;51.514;14.614;2023-05-01T00:23:33;22.97;;;15.37;;
15878;SDS011;61999;51.514;14.614;2023-05-01T00:26:01;17.73;;;12.23;;
15878;SDS011;61999;51.514;14.614;2023-05-01T00:28:29;16.00;;;11.50;;
15878;SDS011;61999;51.514;14.614;2023-05-01T00:30:57;16.23;;;10.93;;
15878;SDS011;61999;51.514;14.614;2023-05-01T00:33:25;14.00;;;10.17;;
15878;SDS011;61999;51.514;14.614;2023-05-01T00:35:55;15.37;;;10.67;;
15878;SDS011;61999;51.514;14.614;2023-05-01T00:38:22;14.67;;;9.90;;
15878;SDS011;61999;51.514;14.614;2023-05-01T00:40:50;16.27;;;11.13;;
15878;SDS011;61999;51.514;14.614;2023-05-01T00:43:18;16.23;;;10.87;;
15878;SDS011;61999;51.514;14.614;2023-05-01T00:45:46;14.47;;;10.40;;
15878;SDS011;61999;51.514;14.614;2023-05-01T00:48:15;14.20;;;10.47;;
15878;SDS011;61999;51.514;14.614;2023-05-01T00:50:43;14.83;;;9.50;;
15878;SDS011;61999;51.514;14.614;2023-05-01T00:53:15;12.30;;;9.53;;
15878;SDS011;61999;51.514;14.614;2023-05-01T00:55:43;13.07;;;9.83;;
15878;SDS011;61999;51.514;14.614;2023-05-01T00:58:12;15.37;;;9.53;;
15878;SDS011;61999;51.514;14.614;2023-05-01T01:00:43;13.17;;;10.20;;
15878;SDS011;61999;51.514;14.614;2023-05-01T01:03:11;15.70;;;11.60;;
15878;SDS011;61999;51.514;14.614;2023-05-01T01:05:40;12.90;;;10.27;;
15878;SDS011;61999;51.514;14.614;2023-05-01T01:08:17;14.33;;;9.53;;
15878;SDS011;61999;51.514;14.614;2023-05-01T01:10:53;14.43;;;11.00;;
15878;SDS011;61999;51.514;14.614;2023-05-01T01:13:38;16.43;;;10.67;;
15878;SDS011;61999;51.514;14.614;2023-05-01T01:16:18;13.17;;;9.87;;
15878;SDS011;61999;51.514;14.614;2023-05-01T01:19:00;12.73;;;9.77;;
15878;SDS011;61999;51.514;14.614;2023-05-01T01:21:43;15.00;;;11.27;;
15878;SDS011;61999;51.514;14.614;2023-05-01T01:27:38;13.70;;;10.33;;
15878;SDS011;61999;51.514;14.614;2023-05-01T01:30:47;14.60;;;10.30;;
15878;SDS011;61999;51.514;14.614;2023-05-01T01:33:48;12.73;;;9.90;;
15878;SDS011;61999;51.514;14.614;2023-05-01T01:36:31;13.87;;;10.27;;
15878;SDS011;61999;51.514;14.614;2023-05-01T01:39:08;15.23;;;9.87;;
15878;SDS011;61999;51.514;14.614;2023-05-01T01:41:48;12.63;;;10.57;;
15878;SDS011;61999;51.514;14.614;2023-05-01T01:44:21;15.37;;;10.37;;
15878;SDS011;61999;51.514;14.614;2023-05-01T01:46:59;12.50;;;8.90;;
15878;SDS011;61999;51.514;14.614;2023-05-01T01:49:34;13.73;;;9.00;;
15878;SDS011;61999;51.514;14.614;2023-05-01T01:52:08;13.17;;;9.03;;
15878;SDS011;61999;51.514;14.614;2023-05-01T01:54:43;13.63;;;9.00;;
15878;SDS011;61999;51.514;14.614;2023-05-01T01:57:17;14.73;;;9.77;;
15878;SDS011;61999;51.514;14.614;2023-05-01T01:59:48;12.50;;;9.83;;
15878;SDS011;61999;51.514;14.614;2023-05-01T02:02:18;14.03;;;9.97;;
15878;SDS011;61999;51.514;14.614;2023-05-01T02:04:50;11.37;;;8.60;;
15878;SDS011;61999;51.514;14.614;2023-05-01T02:07:22;12.60;;;8.17;;
15878;SDS011;61999;51.514;14.614;2023-05-01T02:09:53;12.13;;;8.43;;
15878;SDS011;61999;51.514;14.614;2023-05-01T02:12:23;9.73;;;7.87;;
15878;SDS011;61999;51.514;14.614;2023-05-01T02:14:53;12.10;;;8.07;;
15878;SDS011;61999;51.514;14.614;2023-05-01T02:17:23;10.30;;;7.83;;
15878;SDS011;61999;51.514;14.614;2023-05-01T02:19:54;11.77;;;8.90;;
15878;SDS011;61999;51.514;14.614;2023-05-01T02:22:23;12.07;;;7.37;;
15878;SDS011;61999;51.514;14.614;2023-05-01T02:24:53;10.50;;;7.87;;
15878;SDS011;61999;51.514;14.614;2023-05-01T02:27:25;10.93;;;6.57;;
15878;SDS011;61999;51.514;14.614;2023-05-01T02:29:58;10.77;;;7.50;;
15878;SDS011;61999;51.514;14.614;2023-05-01T02:32:26;9.40;;;7.17;;
15878;SDS011;61999;51.514;14.614;2023-05-01T02:34:55;10.43;;;7.13;;
15878;SDS011;61999;51.514;14.614;2023-05-01T02:37:25;8.87;;;6.53;;
15878;SDS011;61999;51.514;14.614;2023-05-01T02:39:55;11.40;;;7.07;;
15878;SDS011;61999;51.514;14.614;2023-05-01T02:42:24;15.33;;;7.80;;
15878;SDS011;61999;51.514;14.614;2023-05-01T02:44:56;13.03;;;6.57;;
15878;SDS011;61999;51.514;14.614;2023-05-01T02:47:27;12.00;;;7.47;;
15878;SDS011;61999;51.514;14.614;2023-05-01T02:50:02;10.03;;;6.03;;
15878;SDS011;61999;51.514;14.614;2023-05-01T02:52:33;10.20;;;6.30;;
15878;SDS011;61999;51.514;14.614;2023-05-01T02:55:04;8.17;;;5.90;;
15878;SDS011;61999;51.514;14.614;2023-05-01T02:57:34;9.03;;;6.53;;
15878;SDS011;61999;51.514;14.614;2023-05-01T03:00:02;10.13;;;6.33;;
15878;SDS011;61999;51.514;14.614;2023-05-01T03:02:34;8.00;;;6.30;;
15878;SDS011;61999;51.514;14.614;2023-05-01T03:05:05;10.27;;;7.23;;
15878;SDS011;61999;51.514;14.614;2023-05-01T03:07:34;9.93;;;6.97;;
15878;SDS011;61999;51.514;14.614;2023-05-01T03:10:02;9.57;;;6.40;;
15878;SDS011;61999;51.514;14.614;2023-05-01T03:12:31;10.03;;;6.60;;
15878;SDS011;61999;51.514;14.614;2023-05-01T03:15:00;9.30;;;6.20;;
15878;SDS011;61999;51.514;14.614;2023-05-01T03:17:27;10.10;;;6.03;;
15878;SDS011;61999;51.514;14.614;2023-05-01T03:19:56;8.07;;;6.53;;
15878;SDS011;61999;51.514;14.614;2023-05-01T03:22:27;8.10;;;5.43;;
15878;SDS011;61999;51.514;14.614;2023-05-01T03:24:58;10.37;;;6.17;;
15878;SDS011;61999;51.514;14.614;2023-05-01T03:27:26;8.50;;;5.73;;
15878;SDS011;61999;51.514;14.614;2023-05-01T03:29:55;9.80;;;6.03;;
15878;SDS011;61999;51.514;14.614;2023-05-01T03:32:23;10.30;;;5.80;;
15878;SDS011;61999;51.514;14.614;2023-05-01T03:34:54;10.97;;;7.30;;
15878;SDS011;61999;51.514;14.614;2023-05-01T03:37:22;8.23;;;6.07;;
15878;SDS011;61999;51.514;14.614;2023-05-01T03:39:52;9.13;;;6.23;;
15878;SDS011;61999;51.514;14.614;2023-05-01T03:42:20;10.63;;;6.77;;
15878;SDS011;61999;51.514;14.614;2023-05-01T03:44:48;9.37;;;6.30;;
15878;SDS011;61999;51.514;14.614;2023-05-01T03:47:16;15.60;;;6.70;;
15878;SDS011;61999;51.514;14.614;2023-05-01T03:49:44;8.17;;;6.50;;
15878;SDS011;61999;51.514;14.614;2023-05-01T03:52:12;12.17;;;6.73;;
15878;SDS011;61999;51.514;14.614;2023-05-01T03:54:40;8.77;;;5.80;;
15878;SDS011;61999;51.514;14.614;2023-05-01T03:57:11;9.73;;;6.17;;
15878;SDS011;61999;51.514;14.614;2023-05-01T03:59:39;9.13;;;5.40;;
15878;SDS011;61999;51.514;14.614;2023-05-01T04:02:08;10.73;;;5.80;;
15878;SDS011;61999;51.514;14.614;2023-05-01T04:04:36;7.63;;;5.73;;
15878;SDS011;61999;51.514;14.614;2023-05-01T04:07:04;8.57;;;5.77;;
15878;SDS011;61999;51.514;14.614;2023-05-01T04:09:33;9.43;;;6.00;;
15878;SDS011;61999;51.514;14.614;2023-05-01T04:12:01;9.20;;;5.30;;
15878;SDS011;61999;51.514;14.614;2023-05-01T04:14:30;7.67;;;5.30;;
15878;SDS011;61999;51.514;14.614;2023-05-01T04:16:58;8.03;;;5.43;;
15878;SDS011;61999;51.514;14.614;2023-05-01T04:19:26;10.63;;;6.47;;
15878;SDS011;61999;51.514;14.614;2023-05-01T04:21:54;6.63;;;5.30;;
15878;SDS011;61999;51.514;14.614;2023-05-01T04:24:22;8.60;;;5.43;;
15878;SDS011;61999;51.514;14.614;2023-05-01T04:26:50;7.07;;;5.57;;
15878;SDS011;61999;51.514;14.614;2023-05-01T04:29:18;8.97;;;5.93;;
15878;SDS011;61999;51.514;14.614;2023-05-01T04:31:48;8.87;;;6.40;;
15878;SDS011;61999;51.514;14.614;2023-05-01T04:34:16;10.63;;;7.23;;
15878;SDS011;61999;51.514;14.614;2023-05-01T04:36:44;8.77;;;6.17;;
15878;SDS011;61999;51.514;14.614;2023-05-01T04:39:12;8.67;;;6.47;;
15878;SDS011;61999;51.514;14.614;2023-05-01T04:41:40;10.57;;;6.70;;
15878;SDS011;61999;51.514;14.614;2023-05-01T04:44:09;10.33;;;6.73;;
15878;SDS011;61999;51.514;14.614;2023-05-01T04:46:36;9.57;;;6.77;;
15878;SDS011;61999;51.514;14.614;2023-05-01T04:49:06;9.70;;;6.53;;
15878;SDS011;61999;51.514;14.614;2023-05-01T04:51:34;7.93;;;5.63;;
15878;SDS011;61999;51.514;14.614;2023-05-01T04:54:02;8.50;;;6.17;;
15878;SDS011;61999;51.514;14.614;2023-05-01T04:56:30;7.97;;;6.50;;
15878;SDS011;61999;51.514;14.614;2023-05-01T04:58:58;9.07;;;6.73;;
15878;SDS011;61999;51.514;14.614;2023-05-01T05:01:27;7.23;;;5.90;;
15878;SDS011;61999;51.514;14.614;2023-05-01T05:03:54;8.67;;;6.07;;
15878;SDS011;61999;51.514;14.614;2023-05-01T05:06:24;8.70;;;6.30;;
15878;SDS011;61999;51.514;14.614;2023-05-01T05:08:52;10.63;;;6.87;;
15878;SDS011;61999;51.514;14.614;2023-05-01T05:11:22;10.77;;;6.30;;
15878;SDS011;61999;51.514;14.614;2023-05-01T05:13:50;8.57;;;6.27;;
15878;SDS011;61999;51.514;14.614;2023-05-01T05:16:18;12.33;;;7.50;;
15878;SDS011;61999;51.514;14.614;2023-05-01T05:18:46;8.73;;;6.10;;
15878;SDS011;61999;51.514;14.614;2023-05-01T05:21:14;11.50;;;7.23;;
15878;SDS011;61999;51.514;14.614;2023-05-01T05:23:43;10.37;;;7.00;;
15878;SDS011;61999;51.514;14.614;2023-05-01T05:26:11;10.37;;;7.23;;
15878;SDS011;61999;51.514;14.614;2023-05-01T05:28:40;7.87;;;6.77;;
15878;SDS011;61999;51.514;14.614;2023-05-01T05:31:08;8.20;;;6.77;;
15878;SDS011;61999;51.514;14.614;2023-05-01T05:33:36;10.80;;;6.23;;
15878;SDS011;61999;51.514;14.614;2023-05-01T05:36:04;11.33;;;6.87;;
15878;SDS011;61999;51.514;14.614;2023-05-01T05:38:32;12.07;;;6.90;;
15878;SDS011;61999;51.514;14.614;2023-05-01T05:41:02;12.90;;;6.87;;
15878;SDS011;61999;51.514;14.614;2023-05-01T05:43:30;9.37;;;6.57;;
15878;SDS011;61999;51.514;14.614;2023-05-01T05:45:58;10.17;;;6.97;;
15878;SDS011;61999;51.514;14.614;2023-05-01T05:48:26;10.23;;;6.53;;
15878;SDS011;61999;51.514;14.614;2023-05-01T05:50:55;8.27;;;6.90;;
15878;SDS011;61999;51.514;14.614;2023-05-01T05:53:23;10.50;;;6.60;;
15878;SDS011;61999;51.514;14.614;2023-05-01T05:55:51;11.83;;;7.07;;
15878;SDS011;61999;51.514;14.614;2023-05-01T05:58:20;9.73;;;7.27;;
15878;SDS011;61999;51.514;14.614;2023-05-01T06:00:49;8.80;;;6.93;;
15878;SDS011;61999;51.514;14.614;2023-05-01T06:03:20;10.20;;;6.30;;
15878;SDS011;61999;51.514;14.614;2023-05-01T06:05:49;5.83;;;5.27;;
15878;SDS011;61999;51.514;14.614;2023-05-01T06:08:17;8.63;;;5.83;;
15878;SDS011;61999;51.514;14.614;2023-05-01T06:10:45;9.63;;;6.17;;
15878;SDS011;61999;51.514;14.614;2023-05-01T06:13:13;8.77;;;6.07;;
15878;SDS011;61999;51.514;14.614;2023-05-01T06:15:42;9.17;;;5.77;;
15878;SDS011;61999;51.514;14.614;2023-05-01T06:18:10;7.50;;;5.87;;
15878;SDS011;61999;51.514;14.614;2023-05-01T06:20:38;7.27;;;5.27;;
15878;SDS011;61999;51.514;14.614;2023-05-01T06:23:07;8.03;;;5.60;;
15878;SDS011;61999;51.514;14.614;2023-05-01T06:25:36;8.43;;;5.80;;
15878;SDS011;61999;51.514;14.614;2023-05-01T06:28:04;10.40;;;5.47;;
15878;SDS011;61999;51.514;14.614;2023-05-01T06:30:32;7.10;;;4.73;;
15878;SDS011;61999;51.514;14.614;2023-05-01T06:33:01;6.20;;;5.47;;
15878;SDS011;61999;51.514;14.614;2023-05-01T06:35:29;5.53;;;4.60;;
15878;SDS011;61999;51.514;14.614;2023-05-01T06:37:57;8.80;;;4.73;;
15878;SDS011;61999;51.514;14.614;2023-05-01T06:40:25;6.43;;;4.97;;
15878;SDS011;61999;51.514;14.614;2023-05-01T06:42:53;7.33;;;4.50;;
15878;SDS011;61999;51.514;14.614;2023-05-01T06:45:22;5.13;;;4.57;;
15878;SDS011;61999;51.514;14.614;2023-05-01T06:47:50;7.10;;;4.47;;
15878;SDS011;61999;51.514;14.614;2023-05-01T06:50:19;5.13;;;4.27;;
15878;SDS011;61999;51.514;14.614;2023-05-01T06:52:47;7.37;;;4.50;;
15878;SDS011;61999;51.514;14.614;2023-05-01T06:55:15;9.57;;;4.70;;
15878;SDS011;61999;51.514;14.614;2023-05-01T06:57:43;6.63;;;4.43;;
15878;SDS011;61999;51.514;14.614;2023-05-01T07:00:11;5.40;;;4.17;;
15878;SDS011;61999;51.514;14.614;2023-05-01T07:02:43;7.87;;;4.83;;
15878;SDS011;61999;51.514;14.614;2023-05-01T07:05:11;5.70;;;4.00;;
15878;SDS011;61999;51.514;14.614;2023-05-01T07:07:40;8.33;;;4.80;;
15878;SDS011;61999;51.514;14.614;2023-05-01T07:10:12;5.33;;;4.80;;
15878;SDS011;61999;51.514;14.614;2023-05-01T07:12:40;5.80;;;4.80;;
15878;SDS011;61999;51.514;14.614;2023-05-01T07:15:08;9.13;;;6.30;;
15878;SDS011;61999;51.514;14.614;2023-05-01T07:17:37;8.37;;;5.73;;
15878;SDS011;61999;51.514;14.614;2023-05-01T07:20:05;11.37;;;7.20;;
15878;SDS011;61999;51.514;14.614;2023-05-01T07:22:35;9.00;;;6.23;;
15878;SDS011;61999;51.514;14.614;2023-05-01T07:25:05;7.57;;;5.40;;
15878;SDS011;61999;51.514;14.614;2023-05-01T07:27:34;10.20;;;6.77;;
15878;SDS011;61999;51.514;14.614;2023-05-01T07:30:02;8.03;;;6.20;;
15878;SDS011;61999;51.514;14.614;2023-05-01T07:32:31;6.57;;;5.23;;
15878;SDS011;61999;51.514;14.614;2023-05-01T07:34:59;8.53;;;5.53;;
15878;SDS011;61999;51.514;14.614;2023-05-01T07:37:27;6.07;;;5.03;;
15878;SDS011;61999;51.514;14.614;2023-05-01T07:39:55;5.83;;;4.67;;
15878;SDS011;61999;51.514;14.614;2023-05-01T07:42:24;8.07;;;5.23;;
15878;SDS011;61999;51.514;14.614;2023-05-01T07:44:53;6.57;;;5.43;;
15878;SDS011;61999;51.514;14.614;2023-05-01T07:47:20;6.97;;;5.10;;
15878;SDS011;61999;51.514;14.614;2023-05-01T07:49:49;8.93;;;5.50;;
15878;SDS011;61999;51.514;14.614;2023-05-01T07:52:17;5.70;;;4.33;;
15878;SDS011;61999;51.514;14.614;2023-05-01T07:54:47;6.23;;;4.47;;
15878;SDS011;61999;51.514;14.614;2023-05-01T07:57:16;9.47;;;5.67;;
15878;SDS011;61999;51.514;14.614;2023-05-01T07:59:46;7.40;;;5.57;;
15878;SDS011;61999;51.514;14.614;2023-05-01T08:02:15;6.67;;;5.83;;
15878;SDS011;61999;51.514;14.614;2023-05-01T08:04:43;7.60;;;5.70;;
15878;SDS011;61999;51.514;14.614;2023-05-01T08:07:13;8.33;;;6.13;;
15878;SDS011;61999;51.514;14.614;2023-05-01T08:09:41;9.17;;;6.03;;
15878;SDS011;61999;51.514;14.614;2023-05-01T08:12:09;10.60;;;6.70;;
15878;SDS011;61999;51.514;14.614;2023-05-01T08:14:37;8.33;;;6.63;;
15878;SDS011;61999;51.514;14.614;2023-05-01T08:17:06;6.37;;;4.97;;
15878;SDS011;61999;51.514;14.614;2023-05-01T08:19:34;8.03;;;6.13;;
15878;SDS011;61999;51.514;14.614;2023-05-01T08:22:02;8.10;;;5.63;;
15878;SDS011;61999;51.514;14.614;2023-05-01T08:24:29;8.17;;;5.77;;
15878;SDS011;61999;51.514;14.614;2023-05-01T08:26:58;9.53;;;6.50;;
15878;SDS011;61999;51.514;14.614;2023-05-01T08:29:26;7.97;;;6.23;;
15878;SDS011;61999;51.514;14.614;2023-05-01T08:31:54;9.97;;;7.20;;
15878;SDS011;61999;51.514;14.614;2023-05-01T08:34:24;10.50;;;8.13;;
15878;SDS011;61999;51.514;14.614;2023-05-01T08:36:52;10.80;;;6.70;;
15878;SDS011;61999;51.514;14.614;2023-05-01T08:39:19;11.67;;;7.23;;
15878;SDS011;61999;51.514;14.614;2023-05-01T08:41:47;7.90;;;6.17;;
15878;SDS011;61999;51.514;14.614;2023-05-01T08:44:17;10.17;;;6.57;;
15878;SDS011;61999;51.514;14.614;2023-05-01T08:46:47;8.33;;;6.57;;
15878;SDS011;61999;51.514;14.614;2023-05-01T08:49:26;8.43;;;5.60;;
15878;SDS011;61999;51.514;14.614;2023-05-01T08:51:58;8.20;;;6.60;;
15878;SDS011;61999;51.514;14.614;2023-05-01T08:54:29;7.37;;;6.57;;
15878;SDS011;61999;51.514;14.614;2023-05-01T08:56:59;7.17;;;6.20;;
15878;SDS011;61999;51.514;14.614;2023-05-01T08:59:29;8.97;;;6.50;;
15878;SDS011;61999;51.514;14.614;2023-05-01T09:02:01;8.73;;;7.10;;
15878;SDS011;61999;51.514;14.614;2023-05-01T09:04:32;8.33;;;6.77;;
15878;SDS011;61999;51.514;14.614;2023-05-01T09:07:03;6.87;;;5.97;;
15878;SDS011;61999;51.514;14.614;2023-05-01T09:09:31;7.97;;;5.90;;
15878;SDS011;61999;51.514;14.614;2023-05-01T09:12:02;10.83;;;7.70;;
15878;SDS011;61999;51.514;14.614;2023-05-01T09:14:42;9.47;;;6.87;;
15878;SDS011;61999;51.514;14.614;2023-05-01T09:17:11;7.17;;;5.67;;
15878;SDS011;61999;51.514;14.614;2023-05-01T09:19:41;10.40;;;7.30;;
15878;SDS011;61999;51.514;14.614;2023-05-01T09:22:09;9.53;;;6.73;;
15878;SDS011;61999;51.514;14.614;2023-05-01T09:24:37;6.50;;;5.70;;
15878;SDS011;61999;51.514;14.614;2023-05-01T09:27:05;7.23;;;6.53;;
15878;SDS011;61999;51.514;14.614;2023-05-01T09:29:37;9.00;;;6.70;;
15878;SDS011;61999;51.514;14.614;2023-05-01T09:32:13;7.23;;;6.53;;
15878;SDS011;61999;51.514;14.614;2023-05-01T09:34:47;8.53;;;6.60;;
15878;SDS011;61999;51.514;14.614;2023-05-01T09:37:25;9.77;;;6.93;;
15878;SDS011;61999;51.514;14.614;2023-05-01T09:40:03;7.70;;;5.10;;
15878;SDS011;61999;51.514;14.614;2023-05-01T09:42:34;7.73;;;5.70;;
15878;SDS011;61999;51.514;14.614;2023-05-01T09:45:05;6.33;;;5.73;;
15878;SDS011;61999;51.514;14.614;2023-05-01T09:47:40;7.87;;;6.43;;
15878;SDS011;61999;51.514;14.614;2023-05-01T09:50:11;7.43;;;6.20;;
15878;SDS011;61999;51.514;14.614;2023-05-01T09:52:55;6.70;;;5.70;;
15878;SDS011;61999;51.514;14.614;2023-05-01T09:55:23;7.17;;;5.87;;
15878;SDS011;61999;51.514;14.614;2023-05-01T09:57:51;7.43;;;5.50;;
15878;SDS011;61999;51.514;14.614;2023-05-01T10:00:19;6.23;;;4.93;;
15878;SDS011;61999;51.514;14.614;2023-05-01T10:02:48;6.23;;;4.70;;
15878;SDS011;61999;51.514;14.614;2023-05-01T10:05:18;7.13;;;5.27;;
15878;SDS011;61999;51.514;14.614;2023-05-01T10:07:56;6.37;;;5.13;;
15878;SDS011;61999;51.514;14.614;2023-05-01T10:10:27;6.83;;;5.90;;
15878;SDS011;61999;51.514;14.614;2023-05-01T10:12:55;4.73;;;4.27;;
15878;SDS011;61999;51.514;14.614;2023-05-01T10:15:40;5.63;;;4.80;;
15878;SDS011;61999;51.514;14.614;2023-05-01T10:18:09;7.83;;;5.57;;
15878;SDS011;61999;51.514;14.614;2023-05-01T10:20:38;4.90;;;4.23;;
15878;SDS011;61999;51.514;14.614;2023-05-01T10:23:07;6.13;;;4.47;;
15878;SDS011;61999;51.514;14.614;2023-05-01T10:25:36;6.97;;;4.90;;
15878;SDS011;61999;51.514;14.614;2023-05-01T10:28:07;6.27;;;4.60;;
15878;SDS011;61999;51.514;14.614;2023-05-01T10:30:36;5.87;;;4.47;;
15878;SDS011;61999;51.514;14.614;2023-05-01T10:33:06;5.37;;;4.13;;
15878;SDS011;61999;51.514;14.614;2023-05-01T10:35:35;5.23;;;4.60;;
15878;SDS011;61999;51.514;14.614;2023-05-01T10:38:09;5.70;;;4.80;;
15878;SDS011;61999;51.514;14.614;2023-05-01T10:40:48;5.43;;;4.60;;
15878;SDS011;61999;51.514;14.614;2023-05-01T10:43:18;5.30;;;4.43;;
15878;SDS011;61999;51.514;14.614;2023-05-01T10:45:53;5.13;;;4.30;;
15878;SDS011;61999;51.514;14.614;2023-05-01T10:48:56;4.40;;;4.00;;
15878;SDS011;61999;51.514;14.614;2023-05-01T10:51:26;5.37;;;3.73;;
15878;SDS011;61999;51.514;14.614;2023-05-01T10:56:52;5.17;;;4.67;;
15878;SDS011;61999;51.514;14.614;2023-05-01T10:59:23;5.90;;;5.10;;
15878;SDS011;61999;51.514;14.614;2023-05-01T11:01:52;5.43;;;4.53;;
15878;SDS011;61999;51.514;14.614;2023-05-01T11:07:18;5.80;;;4.20;;
15878;SDS011;61999;51.514;14.614;2023-05-01T11:09:51;4.13;;;3.63;;
15878;SDS011;61999;51.514;14.614;2023-05-01T11:15:24;5.33;;;4.67;;
15878;SDS011;61999;51.514;14.614;2023-05-01T11:17:57;5.33;;;4.83;;
15878;SDS011;61999;51.514;14.614;2023-05-01T11:23:18;5.20;;;4.37;;
15878;SDS011;61999;51.514;14.614;2023-05-01T11:25:48;5.83;;;4.77;;
15878;SDS011;61999;51.514;14.614;2023-05-01T11:28:19;5.10;;;4.50;;
15878;SDS011;61999;51.514;14.614;2023-05-01T11:30:48;5.20;;;4.70;;
15878;SDS011;61999;51.514;14.614;2023-05-01T11:33:20;6.23;;;4.47;;
15878;SDS011;61999;51.514;14.614;2023-05-01T11:35:57;4.82;;;4.28;;
15878;SDS011;61999;51.514;14.614;2023-05-01T11:38:28;4.70;;;4.18;;
15878;SDS011;61999;51.514;14.614;2023-05-01T11:41:00;5.20;;;4.33;;
15878;SDS011;61999;51.514;14.614;2023-05-01T11:43:30;4.18;;;3.78;;
15878;SDS011;61999;51.514;14.614;2023-05-01T11:45:58;3.70;;;3.40;;
15878;SDS011;61999;51.514;14.614;2023-05-01T11:48:29;3.63;;;3.33;;
15878;SDS011;61999;51.514;14.614;2023-05-01T11:50:58;5.53;;;4.00;;
15878;SDS011;61999;51.514;14.614;2023-05-01T11:53:26;4.72;;;4.05;;
15878;SDS011;61999;51.514;14.614;2023-05-01T11:55:55;4.57;;;4.18;;
15878;SDS011;61999;51.514;14.614;2023-05-01T11:58:31;4.35;;;3.95;;
15878;SDS011;61999;51.514;14.614;2023-05-01T12:01:01;4.60;;;4.20;;
15878;SDS011;61999;51.514;14.614;2023-05-01T12:03:39;4.43;;;4.03;;
15878;SDS011;61999;51.514;14.614;2023-05-01T12:06:09;4.38;;;3.83;;
15878;SDS011;61999;51.514;14.614;2023-05-01T12:08:42;5.75;;;4.25;;
15878;SDS011;61999;51.514;14.614;2023-05-01T12:11:17;4.30;;;3.90;;
15878;SDS011;61999;51.514;14.614;2023-05-01T12:13:46;4.03;;;3.72;;
15878;SDS011;61999;51.514;14.614;2023-05-01T12:16:15;4.20;;;3.80;;
15878;SDS011;61999;51.514;14.614;2023-05-01T12:18:43;4.07;;;3.60;;
15878;SDS011;61999;51.514;14.614;2023-05-01T12:21:13;4.47;;;4.07;;
15878;SDS011;61999;51.514;14.614;2023-05-01T12:23:43;4.30;;;3.90;;
15878;SDS011;61999;51.514;14.614;2023-05-01T12:26:15;3.78;;;3.47;;
15878;SDS011;61999;51.514;14.614;2023-05-01T12:28:52;3.60;;;3.35;;
15878;SDS011;61999;51.514;14.614;2023-05-01T12:31:24;5.40;;;3.30;;
15878;SDS011;61999;51.514;14.614;2023-05-01T12:33:54;3.88;;;3.25;;
15878;SDS011;61999;51.514;14.614;2023-05-01T12:36:24;4.43;;;3.92;;
15878;SDS011;61999;51.514;14.614;2023-05-01T12:38:55;4.30;;;3.72;;
15878;SDS011;61999;51.514;14.614;2023-05-01T12:41:36;3.90;;;3.22;;
15878;SDS011;61999;51.514;14.614;2023-05-01T12:44:16;3.42;;;3.13;;
15878;SDS011;61999;51.514;14.614;2023-05-01T12:46:54;3.90;;;3.42;;
15878;SDS011;61999;51.514;14.614;2023-05-01T12:49:26;4.78;;;4.30;;
15878;SDS011;61999;51.514;14.614;2023-05-01T12:51:56;3.63;;;3.30;;
15878;SDS011;61999;51.514;14.614;2023-05-01T12:54:27;4.05;;;3.28;;
15878;SDS011;61999;51.514;14.614;2023-05-01T12:57:05;3.17;;;2.72;;
15878;SDS011;61999;51.514;14.614;2023-05-01T12:59:35;3.33;;;3.03;;
15878;SDS011;61999;51.514;14.614;2023-05-01T13:02:05;3.63;;;3.28;;
15878;SDS011;61999;51.514;14.614;2023-05-01T13:04:37;3.65;;;3.22;;
15878;SDS011;61999;51.514;14.614;2023-05-01T13:07:09;2.97;;;2.67;;
15878;SDS011;61999;51.514;14.614;2023-05-01T13:09:49;3.20;;;2.85;;
15878;SDS011;61999;51.514;14.614;2023-05-01T13:12:20;3.38;;;3.08;;
15878;SDS011;61999;51.514;14.614;2023-05-01T13:14:48;4.05;;;3.30;;
15878;SDS011;61999;51.514;14.614;2023-05-01T13:17:20;3.80;;;3.28;;
15878;SDS011;61999;51.514;14.614;2023-05-01T13:19:52;3.55;;;2.97;;
15878;SDS011;61999;51.514;14.614;2023-05-01T13:22:27;4.72;;;3.50;;
15878;SDS011;61999;51.514;14.614;2023-05-01T13:24:57;3.70;;;3.28;;
15878;SDS011;61999;51.514;14.614;2023-05-01T13:27:27;3.97;;;3.10;;
15878;SDS011;61999;51.514;14.614;2023-05-01T13:29:56;3.90;;;3.38;;
15878;SDS011;61999;51.514;14.614;2023-05-01T13:32:25;4.50;;;2.90;;
15878;SDS011;61999;51.514;14.614;2023-05-01T13:34:54;4.10;;;3.50;;
15878;SDS011;61999;51.514;14.614;2023-05-01T13:37:27;3.55;;;3.25;;
15878;SDS011;61999;51.514;14.614;2023-05-01T13:39:56;3.05;;;2.75;;
15878;SDS011;61999;51.514;14.614;2023-05-01T13:42:24;3.17;;;2.95;;
15878;SDS011;61999;51.514;14.614;2023-05-01T13:44:54;4.90;;;3.25;;
15878;SDS011;61999;51.514;14.614;2023-05-01T13:47:23;3.65;;;2.45;;
15878;SDS011;61999;51.514;14.614;2023-05-01T13:49:53;3.20;;;2.78;;
15878;SDS011;61999;51.514;14.614;2023-05-01T13:52:21;3.88;;;2.95;;
15878;SDS011;61999;51.514;14.614;2023-05-01T13:54:49;3.20;;;2.90;;
15878;SDS011;61999;51.514;14.614;2023-05-01T13:57:22;3.17;;;2.50;;
15878;SDS011;61999;51.514;14.614;2023-05-01T13:59:51;3.10;;;2.80;;
15878;SDS011;61999;51.514;14.614;2023-05-01T14:02:23;2.70;;;2.50;;
15878;SDS011;61999;51.514;14.614;2023-05-01T14:04:54;2.90;;;2.60;;
15878;SDS011;61999;51.514;14.614;2023-05-01T14:07:23;3.22;;;2.70;;
15878;SDS011;61999;51.514;14.614;2023-05-01T14:09:52;4.70;;;2.65;;
15878;SDS011;61999;51.514;14.614;2023-05-01T14:12:23;3.25;;;2.95;;
15878;SDS011;61999;51.514;14.614;2023-05-01T14:14:55;2.92;;;2.53;;
15878;SDS011;61999;51.514;14.614;2023-05-01T14:17:26;2.60;;;2.40;;
15878;SDS011;61999;51.514;14.614;2023-05-01T14:19:57;2.83;;;2.55;;
15878;SDS011;61999;51.514;14.614;2023-05-01T14:22:27;3.88;;;2.28;;
15878;SDS011;61999;51.514;14.614;2023-05-01T14:24:56;4.07;;;2.25;;
15878;SDS011;61999;51.514;14.614;2023-05-01T14:27:24;3.13;;;2.47;;
15878;SDS011;61999;51.514;14.614;2023-05-01T14:29:53;2.35;;;2.10;;
15878;SDS011;61999;51.514;14.614;2023-05-01T14:32:21;2.92;;;2.42;;
15878;SDS011;61999;51.514;14.614;2023-05-01T14:34:50;2.60;;;2.40;;
15878;SDS011;61999;51.514;14.614;2023-05-01T14:37:18;2.47;;;2.28;;
15878;SDS011;61999;51.514;14.614;2023-05-01T14:39:46;2.72;;;2.47;;
15878;SDS011;61999;51.514;14.614;2023-05-01T14:42:14;3.03;;;2.75;;
15878;SDS011;61999;51.514;14.614;2023-05-01T14:44:42;3.97;;;2.60;;
15878;SDS011;61999;51.514;14.614;2023-05-01T14:47:10;2.45;;;2.25;;
15878;SDS011;61999;51.514;14.614;2023-05-01T14:49:48;2.95;;;2.58;;
15878;SDS011;61999;51.514;14.614;2023-05-01T14:52:19;3.60;;;2.70;;
15878;SDS011;61999;51.514;14.614;2023-05-01T14:54:47;3.60;;;2.53;;
15878;SDS011;61999;51.514;14.614;2023-05-01T14:57:17;3.42;;;2.42;;
15878;SDS011;61999;51.514;14.614;2023-05-01T14:59:45;3.50;;;2.60;;
15878;SDS011;61999;51.514;14.614;2023-05-01T15:02:13;4.22;;;3.22;;